sensor_id;sensor_type;location;lat;lon;timestamp;temperature;humidity
8010;DHT22;4050;51.160;6.938;2022-08-21T00:00:27;16.40;99.90
8010;DHT22;4050;51.160;6.938;2022-08-21T00:02:59;16.30;99.90
8010;DHT22;4050;51.160;6.938;2022-08-21T00:05:28;16.30;99.90
8010;DHT22;4050;51.160;6.938;2022-08-21T00:07:57;16.30;99.90
8010;DHT22;4050;51.160;6.938;2022-08-21T00:10:25;16.30;99.90
8010;DHT22;4050;51.160;6.938;2022-08-21T00:12:53;16.20;99.90
8010;DHT22;4050;51.160;6.938;2022-08-21T00:15:26;16.20;99.90
8010;DHT22;4050;51.160;6.938;2022-08-21T00:17:56;16.10;99.90
8010;DHT22;4050;51.160;6.938;2022-08-21T00:20:24;16.20;99.90
8010;DHT22;4050;51.160;6.938;2022-08-21T00:22:52;16.10;99.90
8010;DHT22;4050;51.160;6.938;2022-08-21T00:25:23;16.00;99.90
8010;DHT22;4050;51.160;6.938;2022-08-21T00:27:51;16.00;99.90
8010;DHT22;4050;51.160;6.938;2022-08-21T00:30:22;16.00;99.90
8010;DHT22;4050;51.160;6.938;2022-08-21T00:32:52;16.00;99.90
8010;DHT22;4050;51.160;6.938;2022-08-21T00:35:25;16.00;99.90
8010;DHT22;4050;51.160;6.938;2022-08-21T00:37:53;16.00;99.90
8010;DHT22;4050;51.160;6.938;2022-08-21T00:40:24;16.00;99.90
8010;DHT22;4050;51.160;6.938;2022-08-21T00:42:52;15.90;99.90
8010;DHT22;4050;51.160;6.938;2022-08-21T00:45:21;15.90;99.90
8010;DHT22;4050;51.160;6.938;2022-08-21T00:47:51;15.90;99.90
8010;DHT22;4050;51.160;6.938;2022-08-21T00:50:26;15.90;99.90
8010;DHT22;4050;51.160;6.938;2022-08-21T00:52:57;15.80;99.90
8010;DHT22;4050;51.160;6.938;2022-08-21T00:55:26;15.80;99.90
8010;DHT22;4050;51.160;6.938;2022-08-21T00:57:59;15.70;99.90
8010;DHT22;4050;51.160;6.938;2022-08-21T01:00:30;15.70;99.90
8010;DHT22;4050;51.160;6.938;2022-08-21T01:03:01;15.70;99.90
8010;DHT22;4050;51.160;6.938;2022-08-21T01:05:36;15.60;99.90
8010;DHT22;4050;51.160;6.938;2022-08-21T01:08:05;15.60;99.90
8010;DHT22;4050;51.160;6.938;2022-08-21T01:10:34;15.60;99.90
8010;DHT22;4050;51.160;6.938;2022-08-21T01:13:04;15.60;99.90
8010;DHT22;4050;51.160;6.938;2022-08-21T01:15:35;15.60;99.90
8010;DHT22;4050;51.160;6.938;2022-08-21T01:18:03;15.60;99.90
8010;DHT22;4050;51.160;6.938;2022-08-21T01:20:32;15.70;99.90
8010;DHT22;4050;51.160;6.938;2022-08-21T01:23:03;15.70;99.90
8010;DHT22;4050;51.160;6.938;2022-08-21T01:25:37;15.70;99.90
8010;DHT22;4050;51.160;6.938;2022-08-21T01:28:10;15.70;99.90
8010;DHT22;4050;51.160;6.938;2022-08-21T01:30:40;15.70;99.90
8010;DHT22;4050;51.160;6.938;2022-08-21T01:33:09;15.70;99.90
8010;DHT22;4050;51.160;6.938;2022-08-21T01:35:38;15.70;99.90
8010;DHT22;4050;51.160;6.938;2022-08-21T01:38:07;15.70;99.90
8010;DHT22;4050;51.160;6.938;2022-08-21T01:40:35;15.60;99.90
8010;DHT22;4050;51.160;6.938;2022-08-21T01:43:03;15.60;99.90
8010;DHT22;4050;51.160;6.938;2022-08-21T01:45:31;15.50;99.90
8010;DHT22;4050;51.160;6.938;2022-08-21T01:47:59;15.50;99.90
8010;DHT22;4050;51.160;6.938;2022-08-21T01:50:27;15.40;99.90
8010;DHT22;4050;51.160;6.938;2022-08-21T01:52:55;15.40;99.90
8010;DHT22;4050;51.160;6.938;2022-08-21T01:55:25;15.30;99.90
8010;DHT22;4050;51.160;6.938;2022-08-21T01:57:53;15.30;99.90
8010;DHT22;4050;51.160;6.938;2022-08-21T02:00:22;15.30;99.90
8010;DHT22;4050;51.160;6.938;2022-08-21T02:02:50;15.20;99.90
8010;DHT22;4050;51.160;6.938;2022-08-21T02:05:18;15.20;99.90
8010;DHT22;4050;51.160;6.938;2022-08-21T02:07:49;15.20;99.90
8010;DHT22;4050;51.160;6.938;2022-08-21T02:10:20;15.20;99.90
8010;DHT22;4050;51.160;6.938;2022-08-21T02:12:50;15.10;99.90
8010;DHT22;4050;51.160;6.938;2022-08-21T02:15:18;15.10;99.90
8010;DHT22;4050;51.160;6.938;2022-08-21T02:17:52;15.10;99.90
8010;DHT22;4050;51.160;6.938;2022-08-21T02:20:22;15.00;99.90
8010;DHT22;4050;51.160;6.938;2022-08-21T02:22:51;15.00;99.90
8010;DHT22;4050;51.160;6.938;2022-08-21T02:25:21;15.00;99.90
8010;DHT22;4050;51.160;6.938;2022-08-21T02:27:51;15.00;99.90
8010;DHT22;4050;51.160;6.938;2022-08-21T02:30:22;15.00;99.90
8010;DHT22;4050;51.160;6.938;2022-08-21T02:32:51;14.90;99.90
8010;DHT22;4050;51.160;6.938;2022-08-21T02:35:19;14.90;99.90
8010;DHT22;4050;51.160;6.938;2022-08-21T02:37:49;14.90;99.90
8010;DHT22;4050;51.160;6.938;2022-08-21T02:40:19;14.80;99.90
8010;DHT22;4050;51.160;6.938;2022-08-21T02:42:47;14.80;99.90
8010;DHT22;4050;51.160;6.938;2022-08-21T02:45:18;14.80;99.90
8010;DHT22;4050;51.160;6.938;2022-08-21T02:47:51;14.80;99.90
8010;DHT22;4050;51.160;6.938;2022-08-21T02:50:21;14.80;99.90
8010;DHT22;4050;51.160;6.938;2022-08-21T02:52:51;14.70;99.90
8010;DHT22;4050;51.160;6.938;2022-08-21T02:55:21;14.70;99.90
8010;DHT22;4050;51.160;6.938;2022-08-21T02:57:49;14.70;99.90
8010;DHT22;4050;51.160;6.938;2022-08-21T03:00:20;14.80;99.90
8010;DHT22;4050;51.160;6.938;2022-08-21T03:02:48;14.80;99.90
8010;DHT22;4050;51.160;6.938;2022-08-21T03:05:17;14.90;99.90
8010;DHT22;4050;51.160;6.938;2022-08-21T03:07:47;15.00;99.90
8010;DHT22;4050;51.160;6.938;2022-08-21T03:10:15;15.00;99.90
8010;DHT22;4050;51.160;6.938;2022-08-21T03:12:43;15.10;99.90
8010;DHT22;4050;51.160;6.938;2022-08-21T03:15:14;15.20;99.90
8010;DHT22;4050;51.160;6.938;2022-08-21T03:17:43;15.20;99.90
8010;DHT22;4050;51.160;6.938;2022-08-21T03:20:13;15.20;99.90
8010;DHT22;4050;51.160;6.938;2022-08-21T03:22:41;15.20;99.90
8010;DHT22;4050;51.160;6.938;2022-08-21T03:25:19;15.20;99.90
8010;DHT22;4050;51.160;6.938;2022-08-21T03:28:08;15.10;99.90
8010;DHT22;4050;51.160;6.938;2022-08-21T03:30:39;15.10;99.90
8010;DHT22;4050;51.160;6.938;2022-08-21T03:33:09;15.10;99.90
8010;DHT22;4050;51.160;6.938;2022-08-21T03:35:41;15.00;99.90
8010;DHT22;4050;51.160;6.938;2022-08-21T03:38:10;15.00;99.90
8010;DHT22;4050;51.160;6.938;2022-08-21T03:40:39;14.90;99.90
8010;DHT22;4050;51.160;6.938;2022-08-21T03:43:07;14.90;99.90
8010;DHT22;4050;51.160;6.938;2022-08-21T03:45:36;14.80;99.90
8010;DHT22;4050;51.160;6.938;2022-08-21T03:48:05;14.80;99.90
8010;DHT22;4050;51.160;6.938;2022-08-21T03:50:38;14.80;99.90
8010;DHT22;4050;51.160;6.938;2022-08-21T03:53:07;14.80;99.90
8010;DHT22;4050;51.160;6.938;2022-08-21T03:55:43;14.80;99.90
8010;DHT22;4050;51.160;6.938;2022-08-21T03:58:11;14.70;99.90
8010;DHT22;4050;51.160;6.938;2022-08-21T04:00:43;14.70;99.90
8010;DHT22;4050;51.160;6.938;2022-08-21T04:03:11;14.70;99.90
8010;DHT22;4050;51.160;6.938;2022-08-21T04:05:41;14.60;99.90
8010;DHT22;4050;51.160;6.938;2022-08-21T04:08:09;14.60;99.90
8010;DHT22;4050;51.160;6.938;2022-08-21T04:10:38;14.50;99.90
8010;DHT22;4050;51.160;6.938;2022-08-21T04:13:08;14.50;99.90
8010;DHT22;4050;51.160;6.938;2022-08-21T04:15:36;14.50;99.90
8010;DHT22;4050;51.160;6.938;2022-08-21T04:18:05;14.50;99.90
8010;DHT22;4050;51.160;6.938;2022-08-21T04:20:33;14.40;99.90
8010;DHT22;4050;51.160;6.938;2022-08-21T04:23:03;14.40;99.90
8010;DHT22;4050;51.160;6.938;2022-08-21T04:25:31;14.40;99.90
8010;DHT22;4050;51.160;6.938;2022-08-21T04:27:59;14.40;99.90
8010;DHT22;4050;51.160;6.938;2022-08-21T04:30:28;14.40;99.90
8010;DHT22;4050;51.160;6.938;2022-08-21T04:32:57;14.30;99.90
8010;DHT22;4050;51.160;6.938;2022-08-21T04:35:27;14.40;99.90
8010;DHT22;4050;51.160;6.938;2022-08-21T04:37:56;14.30;99.90
8010;DHT22;4050;51.160;6.938;2022-08-21T04:40:27;14.40;99.90
8010;DHT22;4050;51.160;6.938;2022-08-21T04:42:57;14.40;99.90
8010;DHT22;4050;51.160;6.938;2022-08-21T04:45:28;14.50;99.90
8010;DHT22;4050;51.160;6.938;2022-08-21T04:47:59;14.60;99.90
8010;DHT22;4050;51.160;6.938;2022-08-21T04:50:29;14.70;99.90
8010;DHT22;4050;51.160;6.938;2022-08-21T04:53:00;14.90;99.90
8010;DHT22;4050;51.160;6.938;2022-08-21T04:55:29;14.90;99.90
8010;DHT22;4050;51.160;6.938;2022-08-21T04:57:57;14.90;99.90
8010;DHT22;4050;51.160;6.938;2022-08-21T05:00:25;15.10;99.90
8010;DHT22;4050;51.160;6.938;2022-08-21T05:02:55;15.10;99.90
8010;DHT22;4050;51.160;6.938;2022-08-21T05:05:27;15.20;99.90
8010;DHT22;4050;51.160;6.938;2022-08-21T05:07:57;15.30;99.90
8010;DHT22;4050;51.160;6.938;2022-08-21T05:10:27;15.60;99.90
8010;DHT22;4050;51.160;6.938;2022-08-21T05:12:56;15.90;99.90
8010;DHT22;4050;51.160;6.938;2022-08-21T05:15:24;16.30;99.90
8010;DHT22;4050;51.160;6.938;2022-08-21T05:17:52;16.70;99.90
8010;DHT22;4050;51.160;6.938;2022-08-21T05:20:26;17.10;99.90
8010;DHT22;4050;51.160;6.938;2022-08-21T05:22:55;17.60;99.90
8010;DHT22;4050;51.160;6.938;2022-08-21T05:25:24;18.00;99.90
8010;DHT22;4050;51.160;6.938;2022-08-21T05:27:53;18.40;99.90
8010;DHT22;4050;51.160;6.938;2022-08-21T05:30:27;18.80;99.90
8010;DHT22;4050;51.160;6.938;2022-08-21T05:32:56;19.20;99.90
8010;DHT22;4050;51.160;6.938;2022-08-21T05:35:26;19.60;99.90
8010;DHT22;4050;51.160;6.938;2022-08-21T05:37:54;20.00;99.90
8010;DHT22;4050;51.160;6.938;2022-08-21T05:40:22;20.30;99.90
8010;DHT22;4050;51.160;6.938;2022-08-21T05:42:51;20.70;99.10
8010;DHT22;4050;51.160;6.938;2022-08-21T05:45:22;20.80;96.30
8010;DHT22;4050;51.160;6.938;2022-08-21T05:48:12;20.70;94.80
8010;DHT22;4050;51.160;6.938;2022-08-21T05:50:41;20.50;93.50
8010;DHT22;4050;51.160;6.938;2022-08-21T05:53:10;20.20;92.80
8010;DHT22;4050;51.160;6.938;2022-08-21T05:55:39;20.10;93.00
8010;DHT22;4050;51.160;6.938;2022-08-21T05:58:11;20.10;93.60
8010;DHT22;4050;51.160;6.938;2022-08-21T06:00:40;20.40;94.50
8010;DHT22;4050;51.160;6.938;2022-08-21T06:03:12;21.00;95.40
8010;DHT22;4050;51.160;6.938;2022-08-21T06:05:42;21.70;95.10
8010;DHT22;4050;51.160;6.938;2022-08-21T06:08:09;22.40;93.30
8010;DHT22;4050;51.160;6.938;2022-08-21T06:10:37;23.00;91.80
8010;DHT22;4050;51.160;6.938;2022-08-21T06:13:05;23.50;89.50
8010;DHT22;4050;51.160;6.938;2022-08-21T06:15:33;24.10;86.30
8010;DHT22;4050;51.160;6.938;2022-08-21T06:18:01;24.70;81.40
8010;DHT22;4050;51.160;6.938;2022-08-21T06:20:31;25.30;76.50
8010;DHT22;4050;51.160;6.938;2022-08-21T06:22:59;25.80;71.60
8010;DHT22;4050;51.160;6.938;2022-08-21T06:25:27;26.40;68.50
8010;DHT22;4050;51.160;6.938;2022-08-21T06:28:00;27.10;64.10
8010;DHT22;4050;51.160;6.938;2022-08-21T06:30:29;27.70;59.40
8010;DHT22;4050;51.160;6.938;2022-08-21T06:32:57;28.20;56.40
8010;DHT22;4050;51.160;6.938;2022-08-21T06:35:27;28.60;54.30
8010;DHT22;4050;51.160;6.938;2022-08-21T06:37:57;29.10;52.40
8010;DHT22;4050;51.160;6.938;2022-08-21T06:40:26;29.50;50.70
8010;DHT22;4050;51.160;6.938;2022-08-21T06:42:56;30.00;49.20
8010;DHT22;4050;51.160;6.938;2022-08-21T06:45:24;30.60;47.30
8010;DHT22;4050;51.160;6.938;2022-08-21T06:47:57;31.00;45.50
8010;DHT22;4050;51.160;6.938;2022-08-21T06:50:25;31.30;44.00
8010;DHT22;4050;51.160;6.938;2022-08-21T06:53:00;31.70;43.00
8010;DHT22;4050;51.160;6.938;2022-08-21T06:55:28;32.20;41.90
8010;DHT22;4050;51.160;6.938;2022-08-21T06:57:56;32.60;40.60
8010;DHT22;4050;51.160;6.938;2022-08-21T07:00:24;32.70;39.30
8010;DHT22;4050;51.160;6.938;2022-08-21T07:02:52;33.00;38.90
8010;DHT22;4050;51.160;6.938;2022-08-21T07:05:20;33.20;38.30
8010;DHT22;4050;51.160;6.938;2022-08-21T07:07:48;33.40;37.90
8010;DHT22;4050;51.160;6.938;2022-08-21T07:10:18;33.60;37.50
8010;DHT22;4050;51.160;6.938;2022-08-21T07:12:48;34.00;37.00
8010;DHT22;4050;51.160;6.938;2022-08-21T07:15:27;34.40;36.30
8010;DHT22;4050;51.160;6.938;2022-08-21T07:17:56;34.90;35.20
8010;DHT22;4050;51.160;6.938;2022-08-21T07:20:24;35.20;34.60
8010;DHT22;4050;51.160;6.938;2022-08-21T07:22:53;35.60;34.10
8010;DHT22;4050;51.160;6.938;2022-08-21T07:25:22;36.00;33.60
8010;DHT22;4050;51.160;6.938;2022-08-21T07:27:50;36.40;32.80
8010;DHT22;4050;51.160;6.938;2022-08-21T07:30:19;36.70;31.60
8010;DHT22;4050;51.160;6.938;2022-08-21T07:32:47;36.70;31.20
8010;DHT22;4050;51.160;6.938;2022-08-21T07:35:16;36.80;30.80
8010;DHT22;4050;51.160;6.938;2022-08-21T07:37:44;37.00;30.50
8010;DHT22;4050;51.160;6.938;2022-08-21T07:40:12;36.90;30.20
8010;DHT22;4050;51.160;6.938;2022-08-21T07:42:42;36.80;30.30
8010;DHT22;4050;51.160;6.938;2022-08-21T07:45:11;36.70;30.60
8010;DHT22;4050;51.160;6.938;2022-08-21T07:47:39;36.80;30.70
8010;DHT22;4050;51.160;6.938;2022-08-21T07:50:09;37.10;30.80
8010;DHT22;4050;51.160;6.938;2022-08-21T07:52:37;37.10;29.80
8010;DHT22;4050;51.160;6.938;2022-08-21T07:55:06;37.00;30.00
8010;DHT22;4050;51.160;6.938;2022-08-21T07:57:34;37.30;30.00
8010;DHT22;4050;51.160;6.938;2022-08-21T08:00:05;37.60;29.70
8010;DHT22;4050;51.160;6.938;2022-08-21T08:02:33;38.00;29.30
8010;DHT22;4050;51.160;6.938;2022-08-21T08:05:02;38.40;28.70
8010;DHT22;4050;51.160;6.938;2022-08-21T08:07:30;38.80;28.40
8010;DHT22;4050;51.160;6.938;2022-08-21T08:09:58;39.00;27.30
8010;DHT22;4050;51.160;6.938;2022-08-21T08:12:26;39.40;27.60
8010;DHT22;4050;51.160;6.938;2022-08-21T08:14:56;39.60;27.50
8010;DHT22;4050;51.160;6.938;2022-08-21T08:17:25;39.90;27.30
8010;DHT22;4050;51.160;6.938;2022-08-21T08:19:53;40.10;26.20
8010;DHT22;4050;51.160;6.938;2022-08-21T08:22:23;39.90;26.20
8010;DHT22;4050;51.160;6.938;2022-08-21T08:24:52;39.60;26.60
8010;DHT22;4050;51.160;6.938;2022-08-21T08:27:20;39.10;26.50
8010;DHT22;4050;51.160;6.938;2022-08-21T08:29:50;38.70;27.10
8010;DHT22;4050;51.160;6.938;2022-08-21T08:32:18;38.80;27.30
8010;DHT22;4050;51.160;6.938;2022-08-21T08:34:48;38.80;27.00
8010;DHT22;4050;51.160;6.938;2022-08-21T08:37:18;39.10;27.00
8010;DHT22;4050;51.160;6.938;2022-08-21T08:39:49;39.50;26.60
8010;DHT22;4050;51.160;6.938;2022-08-21T08:42:22;40.00;25.90
8010;DHT22;4050;51.160;6.938;2022-08-21T08:45:03;40.20;25.90
8010;DHT22;4050;51.160;6.938;2022-08-21T08:47:34;40.40;25.60
8010;DHT22;4050;51.160;6.938;2022-08-21T08:50:08;40.60;25.60
8010;DHT22;4050;51.160;6.938;2022-08-21T08:52:43;41.00;25.30
8010;DHT22;4050;51.160;6.938;2022-08-21T08:55:15;41.10;24.80
8010;DHT22;4050;51.160;6.938;2022-08-21T08:57:50;41.20;24.80
8010;DHT22;4050;51.160;6.938;2022-08-21T09:00:22;41.60;24.80
8010;DHT22;4050;51.160;6.938;2022-08-21T09:02:54;41.90;24.70
8010;DHT22;4050;51.160;6.938;2022-08-21T09:05:26;42.20;24.40
8010;DHT22;4050;51.160;6.938;2022-08-21T09:08:25;42.20;24.20
8010;DHT22;4050;51.160;6.938;2022-08-21T09:11:02;42.00;24.00
8010;DHT22;4050;51.160;6.938;2022-08-21T09:13:39;41.80;24.20
8010;DHT22;4050;51.160;6.938;2022-08-21T09:16:18;41.90;24.20
8010;DHT22;4050;51.160;6.938;2022-08-21T09:18:56;42.00;23.90
8010;DHT22;4050;51.160;6.938;2022-08-21T09:21:40;41.70;23.60
8010;DHT22;4050;51.160;6.938;2022-08-21T09:24:24;41.20;23.80
8010;DHT22;4050;51.160;6.938;2022-08-21T09:27:02;41.00;24.30
8010;DHT22;4050;51.160;6.938;2022-08-21T09:29:35;40.80;24.10
8010;DHT22;4050;51.160;6.938;2022-08-21T09:32:10;40.30;24.10
8010;DHT22;4050;51.160;6.938;2022-08-21T09:34:55;40.00;24.60
8010;DHT22;4050;51.160;6.938;2022-08-21T09:37:26;40.10;25.20
8010;DHT22;4050;51.160;6.938;2022-08-21T09:39:56;40.70;24.90
8010;DHT22;4050;51.160;6.938;2022-08-21T09:42:27;41.40;24.50
8010;DHT22;4050;51.160;6.938;2022-08-21T09:45:09;42.30;24.00
8010;DHT22;4050;51.160;6.938;2022-08-21T09:47:37;43.10;23.30
8010;DHT22;4050;51.160;6.938;2022-08-21T09:50:11;43.40;22.80
8010;DHT22;4050;51.160;6.938;2022-08-21T09:52:46;43.50;22.50
8010;DHT22;4050;51.160;6.938;2022-08-21T09:55:31;43.50;22.30
8010;DHT22;4050;51.160;6.938;2022-08-21T09:58:18;43.50;22.10
8010;DHT22;4050;51.160;6.938;2022-08-21T10:00:57;43.50;22.10
8010;DHT22;4050;51.160;6.938;2022-08-21T10:03:25;43.60;22.00
8010;DHT22;4050;51.160;6.938;2022-08-21T10:05:56;44.20;22.40
8010;DHT22;4050;51.160;6.938;2022-08-21T10:08:27;44.80;21.60
8010;DHT22;4050;51.160;6.938;2022-08-21T10:11:01;45.30;21.40
8010;DHT22;4050;51.160;6.938;2022-08-21T10:13:44;45.80;21.00
8010;DHT22;4050;51.160;6.938;2022-08-21T10:16:25;45.70;20.60
8010;DHT22;4050;51.160;6.938;2022-08-21T10:19:02;45.80;20.90
8010;DHT22;4050;51.160;6.938;2022-08-21T10:21:38;45.90;20.80
8010;DHT22;4050;51.160;6.938;2022-08-21T10:24:16;46.30;20.70
8010;DHT22;4050;51.160;6.938;2022-08-21T10:27:04;46.30;20.20
8010;DHT22;4050;51.160;6.938;2022-08-21T10:29:42;46.20;20.60
8010;DHT22;4050;51.160;6.938;2022-08-21T10:32:22;46.70;20.30
8010;DHT22;4050;51.160;6.938;2022-08-21T10:34:59;47.00;20.20
8010;DHT22;4050;51.160;6.938;2022-08-21T10:37:39;47.00;20.10
8010;DHT22;4050;51.160;6.938;2022-08-21T10:40:18;47.20;20.20
8010;DHT22;4050;51.160;6.938;2022-08-21T10:42:53;46.60;19.80
8010;DHT22;4050;51.160;6.938;2022-08-21T10:45:36;45.60;20.10
8010;DHT22;4050;51.160;6.938;2022-08-21T10:48:08;44.90;20.60
8010;DHT22;4050;51.160;6.938;2022-08-21T10:50:47;44.30;21.00
8010;DHT22;4050;51.160;6.938;2022-08-21T10:53:36;43.80;21.50
8010;DHT22;4050;51.160;6.938;2022-08-21T10:56:16;43.10;21.70
8010;DHT22;4050;51.160;6.938;2022-08-21T10:58:51;42.00;22.30
8010;DHT22;4050;51.160;6.938;2022-08-21T11:01:29;41.30;22.90
8010;DHT22;4050;51.160;6.938;2022-08-21T11:04:09;40.60;23.30
8010;DHT22;4050;51.160;6.938;2022-08-21T11:06:41;39.90;23.70
8010;DHT22;4050;51.160;6.938;2022-08-21T11:09:12;39.20;24.20
8010;DHT22;4050;51.160;6.938;2022-08-21T11:11:46;38.50;24.70
8010;DHT22;4050;51.160;6.938;2022-08-21T11:14:34;37.80;25.10
8010;DHT22;4050;51.160;6.938;2022-08-21T11:17:18;37.00;25.70
8010;DHT22;4050;51.160;6.938;2022-08-21T11:19:52;36.30;26.50
8010;DHT22;4050;51.160;6.938;2022-08-21T11:22:25;35.80;26.90
8010;DHT22;4050;51.160;6.938;2022-08-21T11:24:58;35.30;27.60
8010;DHT22;4050;51.160;6.938;2022-08-21T11:27:34;34.80;28.10
8010;DHT22;4050;51.160;6.938;2022-08-21T11:30:07;34.40;28.60
8010;DHT22;4050;51.160;6.938;2022-08-21T11:32:59;33.90;29.00
8010;DHT22;4050;51.160;6.938;2022-08-21T11:35:34;33.60;29.80
8010;DHT22;4050;51.160;6.938;2022-08-21T11:38:16;33.10;30.10
8010;DHT22;4050;51.160;6.938;2022-08-21T11:40:59;32.80;30.60
8010;DHT22;4050;51.160;6.938;2022-08-21T11:43:37;32.40;30.90
8010;DHT22;4050;51.160;6.938;2022-08-21T11:46:20;31.90;31.20
8010;DHT22;4050;51.160;6.938;2022-08-21T11:49:06;31.80;31.70
8010;DHT22;4050;51.160;6.938;2022-08-21T11:51:44;31.60;32.00
8010;DHT22;4050;51.160;6.938;2022-08-21T11:54:23;31.40;32.50
8010;DHT22;4050;51.160;6.938;2022-08-21T11:56:57;31.40;32.90
8010;DHT22;4050;51.160;6.938;2022-08-21T11:59:34;31.40;32.80
8010;DHT22;4050;51.160;6.938;2022-08-21T12:02:10;31.30;32.90
8010;DHT22;4050;51.160;6.938;2022-08-21T12:04:45;31.10;32.80
8010;DHT22;4050;51.160;6.938;2022-08-21T12:07:16;31.00;33.00
8010;DHT22;4050;51.160;6.938;2022-08-21T12:09:53;31.00;33.30
8010;DHT22;4050;51.160;6.938;2022-08-21T12:12:27;30.90;33.30
8010;DHT22;4050;51.160;6.938;2022-08-21T12:15:23;30.80;33.50
8010;DHT22;4050;51.160;6.938;2022-08-21T12:17:55;30.70;33.80
8010;DHT22;4050;51.160;6.938;2022-08-21T12:20:35;30.70;34.30
8010;DHT22;4050;51.160;6.938;2022-08-21T12:23:12;30.70;34.30
8010;DHT22;4050;51.160;6.938;2022-08-21T12:25:46;30.70;34.40
8010;DHT22;4050;51.160;6.938;2022-08-21T12:28:21;30.70;34.60
8010;DHT22;4050;51.160;6.938;2022-08-21T12:30:51;30.60;34.50
8010;DHT22;4050;51.160;6.938;2022-08-21T12:33:27;30.40;34.50
8010;DHT22;4050;51.160;6.938;2022-08-21T12:36:03;30.40;34.60
8010;DHT22;4050;51.160;6.938;2022-08-21T12:38:39;30.40;34.50
8010;DHT22;4050;51.160;6.938;2022-08-21T12:41:15;30.30;34.70
8010;DHT22;4050;51.160;6.938;2022-08-21T12:43:48;30.20;34.90
8010;DHT22;4050;51.160;6.938;2022-08-21T12:46:22;30.10;34.70
8010;DHT22;4050;51.160;6.938;2022-08-21T12:48:56;30.10;34.70
8010;DHT22;4050;51.160;6.938;2022-08-21T12:51:29;30.00;34.50
8010;DHT22;4050;51.160;6.938;2022-08-21T12:53:59;29.90;34.60
8010;DHT22;4050;51.160;6.938;2022-08-21T12:56:28;29.80;35.20
8010;DHT22;4050;51.160;6.938;2022-08-21T12:59:02;29.70;35.10
8010;DHT22;4050;51.160;6.938;2022-08-21T13:01:35;29.60;35.00
8010;DHT22;4050;51.160;6.938;2022-08-21T13:04:10;29.50;35.00
8010;DHT22;4050;51.160;6.938;2022-08-21T13:06:41;29.50;35.40
8010;DHT22;4050;51.160;6.938;2022-08-21T13:09:12;29.40;35.40
8010;DHT22;4050;51.160;6.938;2022-08-21T13:11:42;29.50;35.30
8010;DHT22;4050;51.160;6.938;2022-08-21T13:14:17;29.60;35.10
8010;DHT22;4050;51.160;6.938;2022-08-21T13:16:48;29.70;35.00
8010;DHT22;4050;51.160;6.938;2022-08-21T13:19:20;29.70;34.70
8010;DHT22;4050;51.160;6.938;2022-08-21T13:21:50;29.70;34.60
8010;DHT22;4050;51.160;6.938;2022-08-21T13:24:20;29.50;34.60
8010;DHT22;4050;51.160;6.938;2022-08-21T13:27:20;29.50;34.90
8010;DHT22;4050;51.160;6.938;2022-08-21T13:30:01;29.60;35.00
8010;DHT22;4050;51.160;6.938;2022-08-21T13:32:32;29.70;34.90
8010;DHT22;4050;51.160;6.938;2022-08-21T13:35:13;29.70;34.90
8010;DHT22;4050;51.160;6.938;2022-08-21T13:37:43;29.80;35.20
8010;DHT22;4050;51.160;6.938;2022-08-21T13:40:14;29.80;34.70
8010;DHT22;4050;51.160;6.938;2022-08-21T13:42:44;29.80;33.80
8010;DHT22;4050;51.160;6.938;2022-08-21T13:45:14;29.80;33.70
8010;DHT22;4050;51.160;6.938;2022-08-21T13:47:45;29.70;33.20
8010;DHT22;4050;51.160;6.938;2022-08-21T13:50:16;29.50;34.30
8010;DHT22;4050;51.160;6.938;2022-08-21T13:52:55;29.40;34.70
8010;DHT22;4050;51.160;6.938;2022-08-21T13:55:24;29.30;34.70
8010;DHT22;4050;51.160;6.938;2022-08-21T13:57:59;29.10;34.70
8010;DHT22;4050;51.160;6.938;2022-08-21T14:00:30;29.10;34.90
8010;DHT22;4050;51.160;6.938;2022-08-21T14:03:05;29.10;35.30
8010;DHT22;4050;51.160;6.938;2022-08-21T14:05:36;29.20;35.40
8010;DHT22;4050;51.160;6.938;2022-08-21T14:08:07;29.30;35.30
8010;DHT22;4050;51.160;6.938;2022-08-21T14:10:42;29.50;35.40
8010;DHT22;4050;51.160;6.938;2022-08-21T14:13:29;29.50;35.10
8010;DHT22;4050;51.160;6.938;2022-08-21T14:16:01;29.50;35.10
8010;DHT22;4050;51.160;6.938;2022-08-21T14:18:30;29.60;35.10
8010;DHT22;4050;51.160;6.938;2022-08-21T14:21:07;29.70;35.10
8010;DHT22;4050;51.160;6.938;2022-08-21T14:23:35;29.70;34.90
8010;DHT22;4050;51.160;6.938;2022-08-21T14:26:06;29.80;35.00
8010;DHT22;4050;51.160;6.938;2022-08-21T14:28:38;29.80;34.70
8010;DHT22;4050;51.160;6.938;2022-08-21T14:31:15;29.80;34.40
8010;DHT22;4050;51.160;6.938;2022-08-21T14:33:46;29.70;34.20
8010;DHT22;4050;51.160;6.938;2022-08-21T14:36:15;29.70;34.20
8010;DHT22;4050;51.160;6.938;2022-08-21T14:38:42;29.60;34.30
8010;DHT22;4050;51.160;6.938;2022-08-21T14:41:16;29.50;34.50
8010;DHT22;4050;51.160;6.938;2022-08-21T14:43:45;29.40;34.80
8010;DHT22;4050;51.160;6.938;2022-08-21T14:46:28;29.30;35.10
8010;DHT22;4050;51.160;6.938;2022-08-21T14:48:57;29.10;35.50
8010;DHT22;4050;51.160;6.938;2022-08-21T14:51:25;29.00;35.50
8010;DHT22;4050;51.160;6.938;2022-08-21T14:53:53;29.00;35.40
8010;DHT22;4050;51.160;6.938;2022-08-21T14:56:21;29.00;35.00
8010;DHT22;4050;51.160;6.938;2022-08-21T14:58:50;29.00;34.80
8010;DHT22;4050;51.160;6.938;2022-08-21T15:01:20;28.80;35.00
8010;DHT22;4050;51.160;6.938;2022-08-21T15:03:49;28.80;35.20
8010;DHT22;4050;51.160;6.938;2022-08-21T15:06:19;28.80;35.40
8010;DHT22;4050;51.160;6.938;2022-08-21T15:08:47;28.80;35.50
8010;DHT22;4050;51.160;6.938;2022-08-21T15:11:18;28.90;35.50
8010;DHT22;4050;51.160;6.938;2022-08-21T15:14:08;28.90;35.80
8010;DHT22;4050;51.160;6.938;2022-08-21T15:16:38;28.90;35.90
8010;DHT22;4050;51.160;6.938;2022-08-21T15:19:06;28.90;35.80
8010;DHT22;4050;51.160;6.938;2022-08-21T15:21:35;28.90;35.60
8010;DHT22;4050;51.160;6.938;2022-08-21T15:24:03;28.80;35.50
8010;DHT22;4050;51.160;6.938;2022-08-21T15:26:31;28.80;35.40
8010;DHT22;4050;51.160;6.938;2022-08-21T15:28:59;28.70;35.50
8010;DHT22;4050;51.160;6.938;2022-08-21T15:31:28;28.80;35.80
8010;DHT22;4050;51.160;6.938;2022-08-21T15:33:56;28.80;35.80
8010;DHT22;4050;51.160;6.938;2022-08-21T15:36:24;28.90;35.90
8010;DHT22;4050;51.160;6.938;2022-08-21T15:38:53;28.90;36.00
8010;DHT22;4050;51.160;6.938;2022-08-21T15:41:21;28.90;36.00
8010;DHT22;4050;51.160;6.938;2022-08-21T15:43:51;28.80;36.10
8010;DHT22;4050;51.160;6.938;2022-08-21T15:46:20;28.80;36.10
8010;DHT22;4050;51.160;6.938;2022-08-21T15:48:48;28.80;36.10
8010;DHT22;4050;51.160;6.938;2022-08-21T15:51:16;28.70;35.90
8010;DHT22;4050;51.160;6.938;2022-08-21T15:53:44;28.70;36.00
8010;DHT22;4050;51.160;6.938;2022-08-21T15:56:21;28.70;36.10
8010;DHT22;4050;51.160;6.938;2022-08-21T15:58:50;28.60;36.30
8010;DHT22;4050;51.160;6.938;2022-08-21T16:01:20;28.50;36.60
8010;DHT22;4050;51.160;6.938;2022-08-21T16:03:50;28.40;36.90
8010;DHT22;4050;51.160;6.938;2022-08-21T16:06:20;28.30;37.10
8010;DHT22;4050;51.160;6.938;2022-08-21T16:09:04;28.20;37.40
8010;DHT22;4050;51.160;6.938;2022-08-21T16:11:33;28.20;38.10
8010;DHT22;4050;51.160;6.938;2022-08-21T16:14:01;28.20;38.30
8010;DHT22;4050;51.160;6.938;2022-08-21T16:16:30;28.10;38.10
8010;DHT22;4050;51.160;6.938;2022-08-21T16:18:58;28.10;38.20
8010;DHT22;4050;51.160;6.938;2022-08-21T16:21:27;28.10;38.10
8010;DHT22;4050;51.160;6.938;2022-08-21T16:23:54;28.10;38.10
8010;DHT22;4050;51.160;6.938;2022-08-21T16:26:23;28.00;38.10
8010;DHT22;4050;51.160;6.938;2022-08-21T16:28:54;28.00;38.20
8010;DHT22;4050;51.160;6.938;2022-08-21T16:31:26;27.90;38.30